Time;durP1;ratioP1;P1;durP2;ratioP2;P2;SDS_P1;SDS_P2;PMS_P1;PMS_P2;Temp;Humidity;BMP_temperature;BMP_pressure;BME280_temperature;BME280_humidity;BME280_pressure;Samples;Min_cycle;Max_cycle;Signal;HPM_P1;HPM_P2
2022/09/14 00:01:35;;;;;;;20.45;4.70;;;;;;;16.62;100.00;100676.31;5085171;28;20107;-66
2022/09/14 00:04:05;;;;;;;17.50;4.55;;;;;;;16.56;100.00;100680.00;5083951;28;20012;-67
2022/09/14 00:06:31;;;;;;;17.85;4.72;;;;;;;16.51;100.00;100666.78;5085336;28;20020;-61
2022/09/14 00:08:59;;;;;;;18.35;5.00;;;;;;;16.51;100.00;100665.88;5084230;28;20516;-65
2022/09/14 00:11:27;;;;;;;18.77;4.68;;;;;;;16.35;100.00;100652.91;5083234;28;20052;-64
2022/09/14 00:13:53;;;;;;;19.88;5.03;;;;;;;16.35;100.00;100647.56;5084468;28;20020;-67
2022/09/14 00:16:27;;;;;;;16.63;4.60;;;;;;;16.37;100.00;100650.22;5083696;28;20020;-65
2022/09/14 00:18:56;;;;;;;19.90;4.82;;;;;;;16.32;100.00;100655.63;5084541;28;20066;-67
2022/09/14 00:21:22;;;;;;;18.70;4.53;;;;;;;16.26;100.00;100653.09;5083720;28;20024;-66
2022/09/14 00:23:48;;;;;;;18.30;4.70;;;;;;;16.25;100.00;100648.69;5085297;28;20020;-66
2022/09/14 00:26:16;;;;;;;17.23;4.35;;;;;;;16.28;100.00;100656.63;5082490;28;20050;-65
2022/09/14 00:28:48;;;;;;;17.92;4.40;;;;;;;16.27;100.00;100649.53;5084266;28;20051;-65
2022/09/14 00:31:15;;;;;;;18.73;4.88;;;;;;;16.20;100.00;100647.91;5082212;28;20115;-62
2022/09/14 00:33:41;;;;;;;19.45;4.72;;;;;;;16.21;100.00;100652.34;5085384;28;20042;-66
2022/09/14 00:36:09;;;;;;;18.25;4.40;;;;;;;16.17;100.00;100645.31;5082103;28;20089;-65
2022/09/14 00:38:35;;;;;;;17.52;4.20;;;;;;;16.06;100.00;100647.31;5086559;28;20024;-66
2022/09/14 00:41:02;;;;;;;18.98;4.10;;;;;;;15.97;100.00;100638.59;5084929;28;20566;-68
2022/09/14 00:43:27;;;;;;;17.65;4.35;;;;;;;15.93;100.00;100636.03;5083120;28;20030;-67
2022/09/14 00:45:53;;;;;;;19.02;4.57;;;;;;;15.93;100.00;100631.59;5082662;28;20379;-68
2022/09/14 00:48:21;;;;;;;18.25;4.18;;;;;;;15.91;100.00;100630.75;5084449;28;20020;-68
2022/09/14 00:50:47;;;;;;;15.93;4.03;;;;;;;15.93;100.00;100628.94;5081128;28;20438;-68
2022/09/14 00:53:12;;;;;;;15.70;4.07;;;;;;;15.98;100.00;100627.03;5085593;28;20016;-68
2022/09/14 00:55:38;;;;;;;17.77;4.38;;;;;;;15.94;100.00;100619.16;5081902;28;20063;-68
2022/09/14 00:58:03;;;;;;;17.45;4.22;;;;;;;15.95;100.00;100612.91;5084713;28;20031;-68
2022/09/14 01:00:30;;;;;;;17.65;4.35;;;;;;;15.96;100.00;100609.31;5083153;28;20463;-68
2022/09/14 01:02:55;;;;;;;17.08;4.40;;;;;;;15.93;100.00;100604.94;5083513;28;20016;-68
2022/09/14 01:05:44;;;;;;;20.92;4.70;;;;;;;15.89;100.00;100597.94;5083681;28;20027;-68
2022/09/14 01:08:41;;;;;;;17.27;4.70;;;;;;;15.95;100.00;100595.13;5011422;28;20072;-68
2022/09/14 01:11:23;;;;;;;19.23;5.18;;;;;;;15.91;100.00;100596.09;5011310;28;20053;-68
2022/09/14 01:13:57;;;;;;;18.17;5.28;;;;;;;15.94;100.00;100592.50;5008749;28;20038;-67
2022/09/14 01:16:34;;;;;;;19.30;5.35;;;;;;;15.78;100.00;100591.91;5011396;28;20030;-68
2022/09/14 01:19:07;;;;;;;17.35;5.30;;;;;;;15.78;100.00;100590.16;5011203;28;20088;-66
2022/09/14 01:21:39;;;;;;;19.75;5.30;;;;;;;15.80;100.00;100576.78;5011383;28;20057;-68
2022/09/14 01:24:13;;;;;;;;;;;;;;;15.86;100.00;100580.22;5011689;28;20524;-69
2022/09/14 01:26:38;;;;;;;17.85;5.10;;;;;;;15.71;100.00;100577.81;5007222;28;20532;-67
2022/09/14 01:29:13;;;;;;;18.10;4.75;;;;;;;15.63;100.00;100593.97;5011093;28;20046;-68
2022/09/14 01:31:46;;;;;;;17.27;4.80;;;;;;;15.68;100.00;100596.53;5010861;28;20512;-68
2022/09/14 01:34:30;;;;;;;15.57;4.50;;;;;;;15.75;100.00;100599.97;5007818;28;20543;-67
2022/09/14 01:37:04;;;;;;;17.15;4.35;;;;;;;15.62;100.00;100594.00;5009499;28;20064;-67
2022/09/14 01:39:33;;;;;;;16.88;4.30;;;;;;;15.57;100.00;100591.44;5010830;28;20088;-65
2022/09/14 01:42:00;;;;;;;19.67;4.68;;;;;;;15.53;100.00;100595.06;5010925;28;20030;-67
2022/09/14 01:44:34;;;;;;;17.40;4.60;;;;;;;15.45;100.00;100589.91;5022269;28;20042;-64
2022/09/14 01:47:15;;;;;;;17.65;4.07;;;;;;;15.45;100.00;100594.34;5082222;28;20031;-67
2022/09/14 01:49:45;;;;;;;17.77;4.35;;;;;;;15.38;100.00;100584.72;5084368;28;20031;-64
2022/09/14 01:52:19;;;;;;;17.05;4.30;;;;;;;15.43;100.00;100583.72;5081116;28;20078;-63
2022/09/14 01:54:50;;;;;;;18.15;4.30;;;;;;;15.34;100.00;100574.13;5081115;28;20032;-65
2022/09/14 01:57:24;;;;;;;16.85;4.25;;;;;;;15.37;100.00;100577.66;5084381;28;20020;-63
2022/09/14 01:59:55;;;;;;;18.27;4.70;;;;;;;15.27;100.00;100575.16;5082201;28;20021;-65
2022/09/14 02:02:36;;;;;;;17.38;4.47;;;;;;;15.28;100.00;100579.59;5083055;28;20032;-63
2022/09/14 02:05:11;;;;;;;19.60;4.30;;;;;;;15.20;100.00;100570.84;5083638;28;20396;-66
2022/09/14 02:07:37;;;;;;;17.08;4.10;;;;;;;15.16;100.00;100572.72;5080882;28;20033;-64
2022/09/14 02:10:08;;;;;;;15.48;4.10;;;;;;;15.17;100.00;100573.56;5083634;28;20513;-64
2022/09/14 02:12:33;;;;;;;19.15;4.57;;;;;;;15.12;100.00;100575.47;5081164;28;20138;-66
2022/09/14 02:14:59;;;;;;;17.80;4.40;;;;;;;15.15;100.00;100572.75;5083176;28;20074;-65
2022/09/14 02:17:24;;;;;;;17.38;4.40;;;;;;;15.12;100.00;100578.13;5082752;28;20016;-66
2022/09/14 02:19:56;;;;;;;16.67;4.28;;;;;;;15.09;100.00;100578.19;5081773;28;20422;-66
2022/09/14 02:22:22;;;;;;;16.70;4.20;;;;;;;15.13;100.00;100582.53;5082783;28;20045;-67
2022/09/14 02:24:48;;;;;;;16.95;4.07;;;;;;;15.17;100.00;100570.91;5081391;28;20025;-67
2022/09/14 02:27:13;;;;;;;17.67;4.60;;;;;;;15.11;100.00;100579.03;5083994;28;20424;-66
2022/09/14 02:29:39;;;;;;;14.55;4.28;;;;;;;15.10;100.00;100575.50;5080714;28;20027;-61
2022/09/14 02:32:17;;;;;;;17.73;4.60;;;;;;;15.11;100.00;100577.22;5083613;28;20048;-60
2022/09/14 02:35:01;;;;;;;18.38;4.47;;;;;;;15.08;100.00;100576.41;5080780;28;20040;-60
2022/09/14 02:37:46;;;;;;;18.92;4.20;;;;;;;15.13;100.00;100586.09;5082543;28;20033;-61
2022/09/14 02:40:22;;;;;;;19.75;4.47;;;;;;;15.11;100.00;100584.34;5018672;28;20575;-61
2022/09/14 02:43:09;;;;;;;17.35;4.30;;;;;;;15.16;100.00;100582.50;5019084;28;20073;-61
2022/09/14 02:45:57;;;;;;;20.05;4.45;;;;;;;15.15;100.00;100578.06;5018721;28;20494;-60
2022/09/14 02:48:37;;;;;;;17.48;4.47;;;;;;;15.11;100.00;100576.34;5021739;28;20030;-61
2022/09/14 02:51:08;;;;;;;15.65;4.45;;;;;;;15.15;100.00;100573.59;5018974;28;20729;-61
2022/09/14 02:54:14;;;;;;;17.10;4.40;;;;;;;15.19;100.00;100577.09;5021185;28;20037;-60
2022/09/14 02:56:40;;;;;;;17.80;4.50;;;;;;;15.08;100.00;100565.78;4973441;28;20556;-61
2022/09/14 02:59:06;;;;;;;20.88;4.78;;;;;;;15.08;100.00;100571.09;4974764;28;20126;-61
2022/09/14 03:01:31;;;;;;;17.77;4.30;;;;;;;15.07;100.00;100564.00;4974874;28;20421;-63
2022/09/14 03:03:56;;;;;;;16.10;4.25;;;;;;;15.09;100.00;100562.22;4974584;28;20045;-61
2022/09/14 03:06:22;;;;;;;17.67;4.70;;;;;;;15.15;100.00;100554.09;4974698;28;20129;-61
2022/09/14 03:08:48;;;;;;;17.48;4.47;;;;;;;15.14;100.00;100561.22;4974836;28;20030;-62
2022/09/14 03:11:14;;;;;;;19.15;4.55;;;;;;;15.06;100.00;100554.28;4974391;28;20045;-61
2022/09/14 03:13:40;;;;;;;18.20;4.32;;;;;;;15.06;100.00;100556.94;4974422;28;20039;-61
2022/09/14 03:16:09;;;;;;;17.63;4.53;;;;;;;14.95;100.00;100550.00;4974643;28;20109;-61
2022/09/14 03:18:35;;;;;;;17.42;4.35;;;;;;;15.02;100.00;100550.78;5013445;28;20034;-61
2022/09/14 03:21:06;;;;;;;17.83;4.70;;;;;;;14.94;100.00;100550.03;5013382;28;20044;-62
2022/09/14 03:23:39;;;;;;;16.38;4.32;;;;;;;14.95;100.00;100549.16;5013613;28;20034;-61
2022/09/14 03:26:17;;;;;;;17.35;4.45;;;;;;;14.94;100.00;100550.94;5013307;28;20064;-63
2022/09/14 03:28:42;;;;;;;16.15;4.40;;;;;;;14.94;100.00;100542.97;5009796;28;20068;-61
2022/09/14 03:31:09;;;;;;;16.33;4.47;;;;;;;14.92;100.00;100550.06;5013143;28;20037;-61
2022/09/14 03:33:35;;;;;;;16.55;4.50;;;;;;;14.91;100.00;100540.34;5071660;28;20486;-61
2022/09/14 03:36:11;;;;;;;18.58;4.47;;;;;;;14.92;100.00;100533.25;5085747;28;20058;-61
2022/09/14 03:38:37;;;;;;;18.13;4.60;;;;;;;14.89;100.00;100520.88;5083281;28;20037;-62
2022/09/14 03:41:09;;;;;;;19.02;4.70;;;;;;;14.89;100.00;100517.34;5085960;28;20036;-61
2022/09/14 03:43:35;;;;;;;17.17;4.60;;;;;;;14.89;100.00;100522.66;5083878;28;20055;-68
2022/09/14 03:46:08;;;;;;;17.50;4.65;;;;;;;14.87;100.00;100513.81;5085500;28;20032;-68
2022/09/14 03:48:34;;;;;;;19.13;4.32;;;;;;;14.79;100.00;100521.94;5083954;28;20036;-68
2022/09/14 03:51:00;;;;;;;15.20;4.22;;;;;;;14.76;100.00;100516.69;5085392;28;20381;-68
2022/09/14 03:53:26;;;;;;;16.33;4.28;;;;;;;14.64;100.00;100513.31;5084754;28;20466;-67
2022/09/14 03:55:52;;;;;;;17.05;4.50;;;;;;;14.64;100.00;100510.66;5084429;28;20045;-68
2022/09/14 03:58:17;;;;;;;18.70;4.50;;;;;;;14.71;100.00;100515.88;5085964;28;20383;-68
2022/09/14 04:00:42;;;;;;;18.55;4.20;;;;;;;14.66;100.00;100509.78;5082901;28;20025;-67
2022/09/14 04:03:08;;;;;;;19.23;4.80;;;;;;;14.68;100.00;100506.19;5086758;28;20032;-68
2022/09/14 04:05:33;;;;;;;16.08;4.40;;;;;;;14.66;100.00;100509.78;5083693;28;20074;-68
2022/09/14 04:07:58;;;;;;;17.17;4.20;;;;;;;14.67;100.00;100498.22;5083716;28;20017;-68
2022/09/14 04:10:24;;;;;;;16.67;4.60;;;;;;;14.64;100.00;100512.47;5084910;28;20024;-68
2022/09/14 04:12:49;;;;;;;16.63;4.10;;;;;;;14.61;100.00;100502.75;5083705;28;20050;-68
2022/09/14 04:15:15;;;;;;;16.10;4.28;;;;;;;14.60;100.00;100500.94;5086057;28;20031;-67
2022/09/14 04:17:40;;;;;;;18.92;5.10;;;;;;;14.61;100.00;100504.50;5082578;28;20027;-68
2022/09/14 04:20:06;;;;;;;18.08;4.35;;;;;;;14.57;100.00;100503.66;5085789;28;20484;-68
2022/09/14 04:22:33;;;;;;;17.38;4.43;;;;;;;14.51;100.00;100503.78;5083424;28;20387;-67
2022/09/14 04:24:58;;;;;;;19.33;4.43;;;;;;;14.53;100.00;100504.63;5084503;28;20017;-67
2022/09/14 04:27:23;;;;;;;16.33;4.50;;;;;;;14.52;100.00;100497.56;5084598;28;20028;-65
2022/09/14 04:29:49;;;;;;;15.73;4.30;;;;;;;14.45;100.00;100504.75;5083102;28;20016;-60
2022/09/14 04:32:15;;;;;;;17.30;4.60;;;;;;;14.43;100.00;100497.69;5085567;28;20079;-60
2022/09/14 04:34:40;;;;;;;20.63;7.70;;;;;;;14.41;100.00;100491.53;5082279;28;20036;-60
2022/09/14 04:37:06;;;;;;;16.45;4.40;;;;;;;14.37;100.00;100481.84;5085555;28;20028;-61
2022/09/14 04:39:31;;;;;;;17.30;4.72;;;;;;;14.33;100.00;100488.13;5083466;28;20050;-61
2022/09/14 04:41:57;;;;;;;18.60;4.68;;;;;;;14.33;100.00;100494.34;5083845;28;20029;-61
2022/09/14 04:44:22;;;;;;;18.55;4.53;;;;;;;14.32;100.00;100487.25;5084524;28;20036;-64
2022/09/14 04:46:47;;;;;;;16.88;4.38;;;;;;;14.35;100.00;100483.69;5082748;28;20383;-61
2022/09/14 04:49:15;;;;;;;16.58;4.40;;;;;;;14.33;100.00;100489.03;5085452;28;20103;-61
2022/09/14 04:51:40;;;;;;;16.55;4.30;;;;;;;14.30;100.00;100481.97;5081835;28;20033;-60
2022/09/14 04:54:06;;;;;;;18.92;4.22;;;;;;;14.32;100.00;100475.75;5085008;28;20509;-60
2022/09/14 04:56:34;;;;;;;15.77;4.28;;;;;;;14.32;100.00;100478.41;5083102;28;20031;-61
2022/09/14 04:59:03;;;;;;;15.70;4.03;;;;;;;14.27;100.00;100470.50;5084199;28;20374;-61
2022/09/14 05:01:31;;;;;;;18.95;4.57;;;;;;;14.27;100.00;100466.06;5083632;28;20394;-61
2022/09/14 05:03:57;;;;;;;16.00;4.20;;;;;;;14.27;100.00;100466.06;5083625;28;20028;-65
2022/09/14 05:06:28;;;;;;;17.33;4.35;;;;;;;14.27;100.00;100468.72;5084427;28;20030;-64
2022/09/14 05:08:54;;;;;;;16.83;4.22;;;;;;;14.25;100.00;100459.88;5083141;28;20056;-63
2022/09/14 05:11:26;;;;;;;13.63;3.88;;;;;;;14.18;100.00;100457.38;5084201;28;20070;-63
2022/09/14 05:13:51;;;;;;;17.83;4.53;;;;;;;14.13;100.00;100452.13;5082577;28;20048;-66
2022/09/14 05:16:20;;;;;;;15.20;4.43;;;;;;;14.10;100.00;100454.84;5084908;28;20032;-65
2022/09/14 05:18:46;;;;;;;18.83;4.50;;;;;;;14.08;100.00;100453.97;5081724;28;20032;-66
2022/09/14 05:21:14;;;;;;;19.45;4.57;;;;;;;14.06;100.00;100450.47;5084823;28;20031;-66
2022/09/14 05:23:40;;;;;;;18.55;4.43;;;;;;;14.07;100.00;100461.09;5081346;28;20034;-60
2022/09/14 05:26:06;;;;;;;20.65;4.72;;;;;;;14.16;100.00;100468.03;5084479;28;20028;-63
2022/09/14 05:28:33;;;;;;;18.20;4.50;;;;;;;14.09;100.00;100472.56;5082526;28;20074;-65
2022/09/14 05:31:02;;;;;;;18.58;4.60;;;;;;;14.11;100.00;100480.50;5083092;28;20064;-65
2022/09/14 05:33:27;;;;;;;17.33;4.88;;;;;;;14.17;100.00;100474.22;5081528;28;20131;-66
2022/09/14 05:35:59;;;;;;;18.90;4.63;;;;;;;14.20;100.00;100474.16;5081916;28;20181;-62
2022/09/14 05:38:24;;;;;;;17.00;4.45;;;;;;;14.24;100.00;100474.09;5083552;28;20016;-64
2022/09/14 05:40:53;;;;;;;16.10;4.50;;;;;;;14.29;100.00;100474.03;5084541;28;20043;-61
2022/09/14 05:43:19;;;;;;;18.67;4.65;;;;;;;14.29;100.00;100474.03;5082030;28;20062;-62
2022/09/14 05:45:44;;;;;;;18.58;4.90;;;;;;;14.35;100.00;100473.03;5086658;28;20102;-61
2022/09/14 05:48:09;;;;;;;19.52;4.97;;;;;;;14.33;100.00;100474.84;5087164;28;20024;-69
2022/09/14 05:50:35;;;;;;;17.70;4.90;;;;;;;14.33;100.00;100474.84;5086897;28;20020;-67
2022/09/14 05:53:00;;;;;;;18.45;4.70;;;;;;;14.28;100.00;100478.47;5083783;28;20059;-67
2022/09/14 05:55:25;;;;;;;18.17;5.05;;;;;;;14.22;100.00;100477.69;5087457;28;20099;-69
2022/09/14 05:57:51;;;;;;;16.63;4.60;;;;;;;14.22;100.00;100481.22;5085133;28;20035;-68
2022/09/14 06:00:17;;;;;;;17.02;5.03;;;;;;;14.29;100.00;100480.19;5086934;28;20054;-68
2022/09/14 06:02:47;;;;;;;18.13;5.07;;;;;;;14.31;100.00;100477.53;5083260;28;20032;-70
2022/09/14 06:05:12;;;;;;;19.02;5.28;;;;;;;14.37;100.00;100477.44;5087581;28;20475;-68
2022/09/14 06:07:38;;;;;;;17.92;5.20;;;;;;;14.38;100.00;100484.50;5085928;28;20029;-70
2022/09/14 06:10:03;;;;;;;18.17;5.10;;;;;;;14.37;100.00;100490.72;5086626;28;20129;-67
2022/09/14 06:12:28;;;;;;;18.60;5.63;;;;;;;14.37;100.00;100481.84;5090007;28;20039;-69
2022/09/14 06:14:54;;;;;;;19.20;5.65;;;;;;;14.38;100.00;100488.94;5088066;28;20027;-68
2022/09/14 06:17:19;;;;;;;19.70;5.60;;;;;;;14.29;100.00;100488.19;5085139;28;20029;-68
2022/09/14 06:19:45;;;;;;;17.88;5.40;;;;;;;14.27;100.00;100492.66;5088688;28;20029;-69
2022/09/14 06:22:10;;;;;;;18.63;5.20;;;;;;;14.26;100.00;100500.66;5083894;28;20470;-68
2022/09/14 06:24:36;;;;;;;18.77;4.97;;;;;;;14.27;100.00;100495.31;5087736;28;20382;-68
2022/09/14 06:27:01;;;;;;;19.15;5.32;;;;;;;14.29;100.00;100504.13;5086253;28;20024;-68
2022/09/14 06:29:26;;;;;;;19.00;5.18;;;;;;;14.26;100.00;100498.00;5087753;28;20032;-69
2022/09/14 06:31:53;;;;;;;18.02;5.25;;;;;;;14.28;100.00;100497.09;5088861;28;20097;-69
2022/09/14 06:34:18;;;;;;;17.45;5.25;;;;;;;14.34;100.00;100489.91;5088268;28;20040;-69
2022/09/14 06:36:44;;;;;;;18.05;5.30;;;;;;;14.33;100.00;100490.78;5090794;28;20028;-68
2022/09/14 06:39:09;;;;;;;17.48;5.20;;;;;;;14.23;100.00;100490.94;5087553;28;20028;-68
2022/09/14 06:41:35;;;;;;;17.70;4.85;;;;;;;14.17;100.00;100488.41;5089941;28;20024;-68
2022/09/14 06:44:00;;;;;;;18.15;5.13;;;;;;;14.14;100.00;100485.78;5086027;28;20052;-70
2022/09/14 06:46:28;;;;;;;16.35;4.80;;;;;;;14.06;100.00;100479.72;5083351;28;20118;-66
2022/09/14 06:49:00;;;;;;;18.30;5.03;;;;;;;14.01;100.00;100470.91;5079418;28;20028;-69
2022/09/14 06:51:31;;;;;;;17.63;5.30;;;;;;;14.13;100.00;100476.06;5082117;28;20077;-69
2022/09/14 06:53:58;;;;;;;17.05;5.00;;;;;;;14.04;100.00;100466.44;5080374;28;20028;-67
2022/09/14 06:56:25;;;;;;;16.75;5.10;;;;;;;14.11;100.00;100470.75;5091562;28;20020;-68
2022/09/14 06:58:51;;;;;;;17.48;4.80;;;;;;;14.09;100.00;100461.91;5090378;28;20111;-70
2022/09/14 07:01:18;;;;;;;17.83;5.20;;;;;;;14.10;100.00;100462.81;5089423;28;20056;-72
2022/09/14 07:03:45;;;;;;;17.55;5.00;;;;;;;13.98;100.00;100449.72;5089154;28;20024;-70
2022/09/14 07:06:32;;;;;;;19.05;5.30;;;;;;;14.02;100.00;100460.25;5088441;28;20475;-71
2022/09/14 07:08:58;;;;;;;18.23;4.93;;;;;;;14.06;100.00;100458.44;5087510;28;20033;-69
2022/09/14 07:11:25;;;;;;;17.25;5.13;;;;;;;14.10;100.00;100462.81;5089628;28;20194;-69
2022/09/14 07:13:53;;;;;;;17.80;5.15;;;;;;;14.02;100.00;100462.91;5088432;28;20387;-68
2022/09/14 07:16:19;;;;;;;17.60;5.03;;;;;;;13.99;100.00;100459.44;5089935;28;20020;-69
2022/09/14 07:18:44;;;;;;;16.63;4.93;;;;;;;13.91;100.00;100449.81;5091079;28;20524;-68
2022/09/14 07:21:15;;;;;;;15.25;4.95;;;;;;;13.82;100.00;100447.31;5081964;28;20028;-70
2022/09/14 07:23:42;;;;;;;18.48;5.13;;;;;;;13.76;100.00;100444.72;5082729;28;20052;-70
2022/09/14 07:26:11;;;;;;;17.63;5.10;;;;;;;13.82;100.00;100449.97;5088934;28;20031;-71
2022/09/14 07:28:38;;;;;;;18.65;5.22;;;;;;;13.88;100.00;100447.22;5093212;28;20421;-68
2022/09/14 07:31:04;;;;;;;17.40;5.22;;;;;;;13.91;100.00;100452.47;5088268;28;20377;-68
2022/09/14 07:33:30;;;;;;;17.48;5.22;;;;;;;13.98;100.00;100452.38;5090988;28;20041;-68
2022/09/14 07:36:10;;;;;;;18.20;5.30;;;;;;;14.05;100.00;100454.94;5090606;28;20020;-61
2022/09/14 07:38:35;;;;;;;17.48;5.38;;;;;;;14.13;100.00;100449.47;5088716;28;20050;-62
2022/09/14 07:41:02;;;;;;;17.45;5.53;;;;;;;14.10;100.00;100454.84;5087583;28;20020;-61
2022/09/14 07:43:28;;;;;;;16.75;5.30;;;;;;;14.16;100.00;100449.41;5083214;28;20035;-61
2022/09/14 07:45:54;;;;;;;17.33;5.53;;;;;;;14.25;100.00;100457.22;5090687;28;20024;-61
2022/09/14 07:48:19;;;;;;;17.58;5.72;;;;;;;14.36;100.00;100449.09;5090713;28;20077;-62
2022/09/14 07:50:45;;;;;;;18.02;5.60;;;;;;;14.40;100.00;100444.56;5089433;28;20032;-61
2022/09/14 07:53:10;;;;;;;17.90;5.40;;;;;;;14.42;100.00;100446.31;5089475;28;20028;-61
2022/09/14 07:55:39;;;;;;;18.83;5.63;;;;;;;14.41;100.00;100451.66;5083349;28;20079;-64
2022/09/14 07:58:05;;;;;;;18.77;5.90;;;;;;;14.42;100.00;100450.75;5084096;28;20490;-66
2022/09/14 08:00:30;;;;;;;19.45;5.95;;;;;;;14.40;100.00;100449.91;5084848;28;20033;-66
2022/09/14 08:02:58;;;;;;;17.58;5.35;;;;;;;14.42;100.00;100450.75;5085723;28;20523;-66
2022/09/14 08:05:24;;;;;;;19.40;6.00;;;;;;;14.45;100.00;100448.91;5083917;28;20029;-62
2022/09/14 08:07:54;;;;;;;19.67;6.07;;;;;;;14.46;100.00;100441.84;5084170;28;20356;-66
2022/09/14 08:10:19;;;;;;;18.63;5.85;;;;;;;14.52;100.00;100444.38;5086926;28;20404;-66
2022/09/14 08:12:49;;;;;;;19.00;6.03;;;;;;;14.55;100.00;100444.31;5084324;28;20118;-66
2022/09/14 08:15:15;;;;;;;17.83;6.10;;;;;;;14.61;100.00;100444.22;5083419;28;20028;-65
2022/09/14 08:17:40;;;;;;;19.23;5.90;;;;;;;14.67;100.00;100434.38;5083876;28;20206;-66
2022/09/14 08:20:06;;;;;;;18.80;6.47;;;;;;;14.77;100.00;100438.63;5085349;28;20047;-66
2022/09/14 08:22:31;;;;;;;20.05;6.90;;;;;;;14.85;100.00;100438.47;5082685;28;20032;-65
2022/09/14 08:24:56;;;;;;;17.92;6.25;;;;;;;14.78;100.00;100438.59;5086057;28;20020;-66
2022/09/14 08:27:22;;;;;;;20.27;6.97;;;;;;;14.84;100.00;100442.03;5083121;28;20454;-67
2022/09/14 08:29:47;;;;;;;19.08;6.90;;;;;;;14.90;100.00;100440.13;5084395;28;20055;-66
2022/09/14 08:32:12;;;;;;;19.10;7.47;;;;;;;14.90;100.00;100442.78;5081028;28;20072;-62
2022/09/14 08:34:38;;;;;;;20.38;7.50;;;;;;;14.91;100.00;100439.22;5082998;28;20050;-65
2022/09/14 08:37:03;;;;;;;19.95;7.18;;;;;;;14.94;100.00;100446.25;5086860;28;20058;-66
2022/09/14 08:39:28;;;;;;;19.67;7.45;;;;;;;14.95;100.00;100448.88;5083286;28;20020;-65
2022/09/14 08:41:57;;;;;;;19.70;7.60;;;;;;;14.95;100.00;100448.88;5085169;28;20024;-64
2022/09/14 08:44:29;;;;;;;20.73;7.95;;;;;;;15.01;100.00;100453.22;5082657;28;20028;-63
2022/09/14 08:47:06;;;;;;;20.60;8.37;;;;;;;15.06;100.00;100447.81;5078122;28;20072;-63
2022/09/14 08:49:45;;;;;;;20.38;8.50;;;;;;;15.12;100.00;100456.53;5081781;28;20020;-62
2022/09/14 08:52:35;;;;;;;21.17;8.63;;;;;;;15.23;100.00;100458.09;5080929;28;20038;-62
2022/09/14 08:55:17;;;;;;;21.75;8.52;;;;;;;15.21;100.00;100458.13;5076505;28;20027;-62
2022/09/14 08:57:55;;;;;;;20.42;8.50;;;;;;;15.26;100.00;100453.59;5079591;28;20025;-63
2022/09/14 09:00:24;;;;;;;23.05;9.30;;;;;;;15.24;100.00;100451.88;5078183;28;20025;-64
2022/09/14 09:02:49;;;;;;;22.05;9.15;;;;;;;15.21;100.00;100452.81;5078465;28;20119;-64
2022/09/14 09:05:37;;;;;;;20.13;8.63;;;;;;;15.27;100.00;100451.81;5078359;28;20099;-65
2022/09/14 09:08:20;;;;;;;21.33;8.45;;;;;;;15.28;100.00;100453.56;5075275;28;20024;-63
2022/09/14 09:10:46;;;;;;;22.13;8.60;;;;;;;15.29;100.00;100453.53;5081670;28;20466;-62
2022/09/14 09:13:19;;;;;;;20.98;8.43;;;;;;;15.24;100.00;100455.41;5084194;28;20016;-62
2022/09/14 09:15:53;;;;;;;22.20;8.73;;;;;;;15.23;100.00;100453.66;5084668;28;20033;-63
2022/09/14 09:18:23;;;;;;;21.25;8.65;;;;;;;15.23;100.00;100451.00;5089932;28;20462;-63
2022/09/14 09:20:57;;;;;;;22.35;8.68;;;;;;;15.17;100.00;100451.09;5087443;28;20036;-63
2022/09/14 09:23:24;;;;;;;20.30;8.63;;;;;;;15.23;100.00;100445.69;5089907;28;20024;-62
2022/09/14 09:25:49;;;;;;;22.15;8.70;;;;;;;15.30;100.00;100455.28;5087097;28;20115;-64
2022/09/14 09:28:15;;;;;;;21.70;8.95;;;;;;;15.32;100.00;100456.13;5087738;28;20104;-63
2022/09/14 09:30:41;;;;;;;21.33;8.93;;;;;;;15.39;100.00;100446.22;5085210;28;20035;-68
2022/09/14 09:33:16;;;;;;;20.60;8.60;;;;;;;15.39;100.00;100437.34;5085892;28;20474;-68
2022/09/14 09:35:41;;;;;;;21.95;9.32;;;;;;;15.42;100.00;100439.94;5084353;28;20046;-69
2022/09/14 09:38:13;;;;;;;21.75;9.27;;;;;;;15.37;100.00;100437.38;5087952;28;20020;-68
2022/09/14 09:40:43;;;;;;;21.02;8.95;;;;;;;15.42;100.00;100439.94;5087477;28;20047;-69
2022/09/14 09:43:17;;;;;;;22.00;9.90;;;;;;;15.53;100.00;100432.59;5086189;28;20020;-68
2022/09/14 09:45:56;;;;;;;21.05;9.00;;;;;;;15.57;100.00;100441.41;5086722;28;20028;-68
2022/09/14 09:48:26;;;;;;;21.23;8.82;;;;;;;15.64;100.00;100446.53;5086472;28;20032;-68
2022/09/14 09:51:01;;;;;;;20.77;8.95;;;;;;;15.50;100.00;100440.66;5087253;28;20032;-68
2022/09/14 09:53:27;;;;;;;21.05;9.02;;;;;;;15.33;100.00;100449.91;5085167;28;20482;-66
2022/09/14 09:55:53;;;;;;;22.20;9.50;;;;;;;15.38;100.00;100449.78;5084847;28;20016;-68
2022/09/14 09:58:27;;;;;;;20.75;9.45;;;;;;;15.46;100.00;100446.94;5083302;28;20035;-68
2022/09/14 10:01:02;;;;;;;21.77;9.77;;;;;;;15.53;100.00;100448.56;5082198;28;20414;-65
2022/09/14 10:03:36;;;;;;;21.52;9.75;;;;;;;15.66;100.00;100446.50;5079970;28;20029;-65
2022/09/14 10:06:06;;;;;;;20.35;8.90;;;;;;;15.67;100.00;100449.13;5080049;28;20061;-63
2022/09/14 10:08:33;;;;;;;21.02;8.60;;;;;;;15.80;100.00;100443.53;5080984;28;20032;-66
2022/09/14 10:11:01;;;;;;;22.27;9.25;;;;;;;15.95;100.00;100448.50;5084095;28;20024;-66
2022/09/14 10:13:32;;;;;;;20.30;8.45;;;;;;;16.15;100.00;100453.38;5080563;28;20051;-64
2022/09/14 10:16:11;;;;;;;20.42;8.65;;;;;;;16.38;100.00;100452.78;5081155;28;20431;-65
2022/09/14 10:18:42;;;;;;;21.48;8.95;;;;;;;16.52;100.00;100449.75;5080610;28;20471;-69
2022/09/14 10:21:08;;;;;;;21.25;8.73;;;;;;;16.67;100.00;100442.25;5082123;28;20045;-68
2022/09/14 10:23:36;;;;;;;19.83;8.50;;;;;;;16.71;100.00;100439.44;5085439;28;20385;-63
2022/09/14 10:26:11;;;;;;;20.75;8.55;;;;;;;16.63;100.00;100435.22;5080858;28;20111;-64
2022/09/14 10:28:38;;;;;;;20.23;8.27;;;;;;;16.46;100.00;100443.72;5082448;28;20020;-69
2022/09/14 10:31:18;;;;;;;19.67;8.13;;;;;;;16.28;100.00;100440.59;5083768;28;20047;-63
2022/09/14 10:33:45;;;;;;;20.42;8.52;;;;;;;16.15;100.00;100439.13;5083418;28;20106;-66
2022/09/14 10:36:26;;;;;;;20.35;8.88;;;;;;;15.92;100.00;100443.25;5081807;28;20062;-62
2022/09/14 10:38:58;;;;;;;21.13;8.85;;;;;;;15.85;100.00;100437.19;5080842;28;20036;-63
2022/09/14 10:41:36;;;;;;;;;;;;;;;15.96;100.00;100444.94;5081222;28;20414;-62
2022/09/14 10:44:43;;;;;;;21.58;8.93;;;;;;;15.76;100.00;100439.19;5082783;28;20288;-62
2022/09/14 10:47:09;;;;;;;20.73;9.00;;;;;;;15.72;100.00;100437.50;5028772;28;20464;-62
2022/09/14 10:50:12;;;;;;;21.02;8.95;;;;;;;15.76;100.00;100434.72;5029801;28;20037;-62
2022/09/14 10:52:56;;;;;;;20.48;9.15;;;;;;;15.74;100.00;100433.91;5030169;28;20558;-62
2022/09/14 10:55:49;;;;;;;20.50;9.00;;;;;;;15.79;100.00;100433.81;5030146;28;20056;-62
2022/09/14 10:58:51;;;;;;;20.40;8.20;;;;;;;15.70;100.00;100432.22;5027179;28;20041;-63
2022/09/14 11:01:27;;;;;;;20.93;9.27;;;;;;;15.66;100.00;100431.38;5028938;28;20506;-63
2022/09/14 11:04:16;;;;;;;20.20;8.88;;;;;;;15.66;100.00;100436.72;5028542;28;20323;-64
2022/09/14 11:07:13;;;;;;;21.40;9.32;;;;;;;15.61;100.00;100429.75;5028460;28;20034;-62
2022/09/14 11:10:00;;;;;;;21.30;9.05;;;;;;;15.56;100.00;100431.66;5027329;28;20033;-63
2022/09/14 11:12:46;;;;;;;20.50;8.85;;;;;;;15.66;100.00;100430.53;5023354;28;20034;-64
2022/09/14 11:15:47;;;;;;;20.55;8.75;;;;;;;15.89;100.00;100429.13;5028855;28;20113;-66
2022/09/14 11:18:27;;;;;;;20.48;8.80;;;;;;;15.82;100.00;100423.06;4960748;28;20045;-63
2022/09/14 11:21:04;;;;;;;20.38;8.13;;;;;;;15.84;100.00;100421.25;4958528;28;20391;-66
2022/09/14 11:23:37;;;;;;;20.60;8.20;;;;;;;15.86;100.00;100422.97;4981092;28;20057;-65